sensor_id;sensor_type;location;lat;lon;timestamp;temperature;humidity
14119;DHT22;7138;49.246;9.100;2024-02-23T00:00:31;7.20;99.90
14119;DHT22;7138;49.246;9.100;2024-02-23T00:02:58;7.10;99.90
14119;DHT22;7138;49.246;9.100;2024-02-23T00:05:24;7.10;99.90
14119;DHT22;7138;49.246;9.100;2024-02-23T00:07:50;7.00;99.90
14119;DHT22;7138;49.246;9.100;2024-02-23T00:10:16;7.00;99.90
14119;DHT22;7138;49.246;9.100;2024-02-23T00:12:42;7.00;99.90
14119;DHT22;7138;49.246;9.100;2024-02-23T00:15:09;6.90;99.90
14119;DHT22;7138;49.246;9.100;2024-02-23T00:17:35;6.90;99.90
14119;DHT22;7138;49.246;9.100;2024-02-23T00:20:03;6.90;99.90
14119;DHT22;7138;49.246;9.100;2024-02-23T00:22:30;6.90;99.90
14119;DHT22;7138;49.246;9.100;2024-02-23T00:24:55;7.00;99.90
14119;DHT22;7138;49.246;9.100;2024-02-23T00:27:21;6.80;99.90
14119;DHT22;7138;49.246;9.100;2024-02-23T00:29:47;6.90;99.90
14119;DHT22;7138;49.246;9.100;2024-02-23T00:32:13;6.80;99.90
14119;DHT22;7138;49.246;9.100;2024-02-23T00:34:38;6.70;99.90
14119;DHT22;7138;49.246;9.100;2024-02-23T00:37:06;6.70;99.90
14119;DHT22;7138;49.246;9.100;2024-02-23T00:39:33;6.70;99.90
14119;DHT22;7138;49.246;9.100;2024-02-23T00:41:59;6.70;99.90
14119;DHT22;7138;49.246;9.100;2024-02-23T00:44:25;6.60;99.90
14119;DHT22;7138;49.246;9.100;2024-02-23T00:46:51;6.60;99.90
14119;DHT22;7138;49.246;9.100;2024-02-23T00:49:16;6.60;99.90
14119;DHT22;7138;49.246;9.100;2024-02-23T00:51:43;6.60;99.90
14119;DHT22;7138;49.246;9.100;2024-02-23T00:54:10;6.60;99.90
14119;DHT22;7138;49.246;9.100;2024-02-23T00:56:35;6.70;99.90
14119;DHT22;7138;49.246;9.100;2024-02-23T00:59:01;6.60;99.90
14119;DHT22;7138;49.246;9.100;2024-02-23T01:01:27;6.60;99.90
14119;DHT22;7138;49.246;9.100;2024-02-23T01:03:54;6.60;99.90
14119;DHT22;7138;49.246;9.100;2024-02-23T01:06:20;6.50;99.90
14119;DHT22;7138;49.246;9.100;2024-02-23T01:08:46;6.50;99.90
14119;DHT22;7138;49.246;9.100;2024-02-23T01:11:14;6.50;99.90
14119;DHT22;7138;49.246;9.100;2024-02-23T01:13:40;6.40;99.90
14119;DHT22;7138;49.246;9.100;2024-02-23T01:16:05;6.40;99.90
14119;DHT22;7138;49.246;9.100;2024-02-23T01:18:31;6.40;99.90
14119;DHT22;7138;49.246;9.100;2024-02-23T01:20:57;6.40;99.90
14119;DHT22;7138;49.246;9.100;2024-02-23T01:23:23;6.40;99.90
14119;DHT22;7138;49.246;9.100;2024-02-23T01:25:49;6.30;99.90
14119;DHT22;7138;49.246;9.100;2024-02-23T01:28:16;6.30;99.90
14119;DHT22;7138;49.246;9.100;2024-02-23T01:30:41;6.20;99.90
14119;DHT22;7138;49.246;9.100;2024-02-23T01:33:07;6.20;99.90
14119;DHT22;7138;49.246;9.100;2024-02-23T01:35:33;6.20;99.90
14119;DHT22;7138;49.246;9.100;2024-02-23T01:37:59;6.10;99.90
14119;DHT22;7138;49.246;9.100;2024-02-23T01:40:25;6.10;99.90
14119;DHT22;7138;49.246;9.100;2024-02-23T01:43:00;6.10;99.90
14119;DHT22;7138;49.246;9.100;2024-02-23T01:45:29;6.20;99.90
14119;DHT22;7138;49.246;9.100;2024-02-23T01:47:55;6.20;99.90
14119;DHT22;7138;49.246;9.100;2024-02-23T01:50:21;6.20;99.90
14119;DHT22;7138;49.246;9.100;2024-02-23T01:52:47;6.10;99.90
14119;DHT22;7138;49.246;9.100;2024-02-23T01:55:14;6.10;99.90
14119;DHT22;7138;49.246;9.100;2024-02-23T01:57:40;6.10;99.90
14119;DHT22;7138;49.246;9.100;2024-02-23T02:00:07;6.10;99.90
14119;DHT22;7138;49.246;9.100;2024-02-23T02:02:40;6.10;99.90
14119;DHT22;7138;49.246;9.100;2024-02-23T02:05:06;6.10;99.90
14119;DHT22;7138;49.246;9.100;2024-02-23T02:07:33;6.10;99.90
14119;DHT22;7138;49.246;9.100;2024-02-23T02:09:59;6.10;99.90
14119;DHT22;7138;49.246;9.100;2024-02-23T02:12:29;6.10;99.90
14119;DHT22;7138;49.246;9.100;2024-02-23T02:14:55;6.00;99.90
14119;DHT22;7138;49.246;9.100;2024-02-23T02:17:21;6.00;99.90
14119;DHT22;7138;49.246;9.100;2024-02-23T02:19:48;6.00;99.90
14119;DHT22;7138;49.246;9.100;2024-02-23T02:22:14;6.00;99.90
14119;DHT22;7138;49.246;9.100;2024-02-23T02:24:40;6.00;99.90
14119;DHT22;7138;49.246;9.100;2024-02-23T02:27:09;6.00;99.90
14119;DHT22;7138;49.246;9.100;2024-02-23T02:29:35;6.00;99.90
14119;DHT22;7138;49.246;9.100;2024-02-23T02:32:01;5.90;99.90
14119;DHT22;7138;49.246;9.100;2024-02-23T02:34:27;5.90;99.90
14119;DHT22;7138;49.246;9.100;2024-02-23T02:36:55;5.90;99.90
14119;DHT22;7138;49.246;9.100;2024-02-23T02:39:21;6.00;99.90
14119;DHT22;7138;49.246;9.100;2024-02-23T02:41:48;6.00;99.90
14119;DHT22;7138;49.246;9.100;2024-02-23T02:44:14;6.00;99.90
14119;DHT22;7138;49.246;9.100;2024-02-23T02:46:40;6.00;99.90
14119;DHT22;7138;49.246;9.100;2024-02-23T02:49:06;6.00;99.90
14119;DHT22;7138;49.246;9.100;2024-02-23T02:51:32;6.00;99.90
14119;DHT22;7138;49.246;9.100;2024-02-23T02:53:59;6.00;99.90
14119;DHT22;7138;49.246;9.100;2024-02-23T02:56:25;6.00;99.90
14119;DHT22;7138;49.246;9.100;2024-02-23T02:58:50;6.00;99.90
14119;DHT22;7138;49.246;9.100;2024-02-23T03:01:16;6.00;99.90
14119;DHT22;7138;49.246;9.100;2024-02-23T03:03:42;6.00;99.90
14119;DHT22;7138;49.246;9.100;2024-02-23T03:06:08;6.00;99.90
14119;DHT22;7138;49.246;9.100;2024-02-23T03:08:34;6.00;99.90
14119;DHT22;7138;49.246;9.100;2024-02-23T03:11:02;6.00;99.90
14119;DHT22;7138;49.246;9.100;2024-02-23T03:13:28;5.90;99.90
14119;DHT22;7138;49.246;9.100;2024-02-23T03:15:54;5.90;99.90
14119;DHT22;7138;49.246;9.100;2024-02-23T03:18:20;5.90;99.90
14119;DHT22;7138;49.246;9.100;2024-02-23T03:20:46;6.00;99.90
14119;DHT22;7138;49.246;9.100;2024-02-23T03:23:12;5.90;99.90
14119;DHT22;7138;49.246;9.100;2024-02-23T03:25:37;6.00;99.90
14119;DHT22;7138;49.246;9.100;2024-02-23T03:28:05;6.00;99.90
14119;DHT22;7138;49.246;9.100;2024-02-23T03:30:31;6.00;99.90
14119;DHT22;7138;49.246;9.100;2024-02-23T03:32:56;5.90;99.90
14119;DHT22;7138;49.246;9.100;2024-02-23T03:35:22;5.90;99.90
14119;DHT22;7138;49.246;9.100;2024-02-23T03:37:48;5.90;99.90
14119;DHT22;7138;49.246;9.100;2024-02-23T03:40:14;5.90;99.90
14119;DHT22;7138;49.246;9.100;2024-02-23T03:42:40;5.90;99.90
14119;DHT22;7138;49.246;9.100;2024-02-23T03:45:08;5.90;99.90
14119;DHT22;7138;49.246;9.100;2024-02-23T03:47:34;5.80;99.90
14119;DHT22;7138;49.246;9.100;2024-02-23T03:50:00;5.80;99.90
14119;DHT22;7138;49.246;9.100;2024-02-23T03:52:27;5.80;99.90
14119;DHT22;7138;49.246;9.100;2024-02-23T03:54:52;5.80;99.90
14119;DHT22;7138;49.246;9.100;2024-02-23T03:57:20;5.70;99.90
14119;DHT22;7138;49.246;9.100;2024-02-23T03:59:51;5.70;99.90
14119;DHT22;7138;49.246;9.100;2024-02-23T04:02:19;5.70;99.90
14119;DHT22;7138;49.246;9.100;2024-02-23T04:04:45;5.70;99.90
14119;DHT22;7138;49.246;9.100;2024-02-23T04:07:10;5.60;99.90
14119;DHT22;7138;49.246;9.100;2024-02-23T04:09:36;5.60;99.90
14119;DHT22;7138;49.246;9.100;2024-02-23T04:12:03;5.60;99.90
14119;DHT22;7138;49.246;9.100;2024-02-23T04:14:29;5.60;99.90
14119;DHT22;7138;49.246;9.100;2024-02-23T04:16:54;5.70;99.90
14119;DHT22;7138;49.246;9.100;2024-02-23T04:19:22;5.60;99.90
14119;DHT22;7138;49.246;9.100;2024-02-23T04:21:47;5.60;99.90
14119;DHT22;7138;49.246;9.100;2024-02-23T04:24:13;5.70;99.90
14119;DHT22;7138;49.246;9.100;2024-02-23T04:26:39;5.70;99.90
14119;DHT22;7138;49.246;9.100;2024-02-23T04:29:05;5.70;99.90
14119;DHT22;7138;49.246;9.100;2024-02-23T04:31:31;5.80;99.90
14119;DHT22;7138;49.246;9.100;2024-02-23T04:33:57;5.70;99.90
14119;DHT22;7138;49.246;9.100;2024-02-23T04:36:24;5.70;99.90
14119;DHT22;7138;49.246;9.100;2024-02-23T04:38:49;5.60;99.90
14119;DHT22;7138;49.246;9.100;2024-02-23T04:41:19;5.60;99.90
14119;DHT22;7138;49.246;9.100;2024-02-23T04:43:46;5.70;99.90
14119;DHT22;7138;49.246;9.100;2024-02-23T04:46:12;5.70;99.90
14119;DHT22;7138;49.246;9.100;2024-02-23T04:48:38;5.70;99.90
14119;DHT22;7138;49.246;9.100;2024-02-23T04:51:04;5.60;99.90
14119;DHT22;7138;49.246;9.100;2024-02-23T04:53:36;5.60;99.90
14119;DHT22;7138;49.246;9.100;2024-02-23T04:56:03;5.60;99.90
14119;DHT22;7138;49.246;9.100;2024-02-23T04:58:29;5.60;99.90
14119;DHT22;7138;49.246;9.100;2024-02-23T05:00:55;5.50;99.90
14119;DHT22;7138;49.246;9.100;2024-02-23T05:03:21;5.50;99.90
14119;DHT22;7138;49.246;9.100;2024-02-23T05:05:46;5.50;99.90
14119;DHT22;7138;49.246;9.100;2024-02-23T05:08:13;5.50;99.90
14119;DHT22;7138;49.246;9.100;2024-02-23T05:10:40;5.40;99.90
14119;DHT22;7138;49.246;9.100;2024-02-23T05:13:06;5.40;99.90
14119;DHT22;7138;49.246;9.100;2024-02-23T05:15:32;5.40;99.90
14119;DHT22;7138;49.246;9.100;2024-02-23T05:17:58;5.30;99.90
14119;DHT22;7138;49.246;9.100;2024-02-23T05:20:24;5.30;99.90
14119;DHT22;7138;49.246;9.100;2024-02-23T05:22:50;5.20;99.90
14119;DHT22;7138;49.246;9.100;2024-02-23T05:25:16;5.20;99.90
14119;DHT22;7138;49.246;9.100;2024-02-23T05:27:43;5.20;99.90
14119;DHT22;7138;49.246;9.100;2024-02-23T05:30:11;5.20;99.90
14119;DHT22;7138;49.246;9.100;2024-02-23T05:32:37;5.40;99.90
14119;DHT22;7138;49.246;9.100;2024-02-23T05:35:04;5.30;99.90
14119;DHT22;7138;49.246;9.100;2024-02-23T05:37:31;5.20;99.90
14119;DHT22;7138;49.246;9.100;2024-02-23T05:39:57;5.20;99.90
14119;DHT22;7138;49.246;9.100;2024-02-23T05:42:25;5.20;99.90
14119;DHT22;7138;49.246;9.100;2024-02-23T05:44:52;5.20;99.90
14119;DHT22;7138;49.246;9.100;2024-02-23T05:47:18;5.20;99.90
14119;DHT22;7138;49.246;9.100;2024-02-23T05:49:44;5.10;99.90
14119;DHT22;7138;49.246;9.100;2024-02-23T05:52:09;5.10;99.90
14119;DHT22;7138;49.246;9.100;2024-02-23T05:54:35;5.10;99.90
14119;DHT22;7138;49.246;9.100;2024-02-23T05:57:01;5.10;99.90
14119;DHT22;7138;49.246;9.100;2024-02-23T05:59:28;5.00;99.90
14119;DHT22;7138;49.246;9.100;2024-02-23T06:01:55;5.00;99.90
14119;DHT22;7138;49.246;9.100;2024-02-23T06:04:24;5.00;99.90
14119;DHT22;7138;49.246;9.100;2024-02-23T06:06:50;5.00;99.90
14119;DHT22;7138;49.246;9.100;2024-02-23T06:09:16;4.90;99.90
14119;DHT22;7138;49.246;9.100;2024-02-23T06:11:42;4.80;99.90
14119;DHT22;7138;49.246;9.100;2024-02-23T06:14:08;4.80;99.90
14119;DHT22;7138;49.246;9.100;2024-02-23T06:16:34;4.90;99.90
14119;DHT22;7138;49.246;9.100;2024-02-23T06:19:01;4.80;99.90
14119;DHT22;7138;49.246;9.100;2024-02-23T06:21:28;4.70;99.90
14119;DHT22;7138;49.246;9.100;2024-02-23T06:23:54;4.60;99.90
14119;DHT22;7138;49.246;9.100;2024-02-23T06:26:21;4.60;99.90
14119;DHT22;7138;49.246;9.100;2024-02-23T06:28:47;4.60;99.90
14119;DHT22;7138;49.246;9.100;2024-02-23T06:31:14;4.60;99.90
14119;DHT22;7138;49.246;9.100;2024-02-23T06:33:40;4.60;99.90
14119;DHT22;7138;49.246;9.100;2024-02-23T06:36:10;4.50;99.90
14119;DHT22;7138;49.246;9.100;2024-02-23T06:38:36;4.50;99.90
14119;DHT22;7138;49.246;9.100;2024-02-23T06:41:02;4.50;99.90
14119;DHT22;7138;49.246;9.100;2024-02-23T06:43:28;4.50;99.90
14119;DHT22;7138;49.246;9.100;2024-02-23T06:45:54;4.50;99.90
14119;DHT22;7138;49.246;9.100;2024-02-23T06:48:20;4.50;99.90
14119;DHT22;7138;49.246;9.100;2024-02-23T06:50:45;4.40;99.90
14119;DHT22;7138;49.246;9.100;2024-02-23T06:53:13;4.40;99.90
14119;DHT22;7138;49.246;9.100;2024-02-23T06:55:39;4.50;99.90
14119;DHT22;7138;49.246;9.100;2024-02-23T06:58:05;4.40;99.90
14119;DHT22;7138;49.246;9.100;2024-02-23T07:00:32;4.40;99.90
14119;DHT22;7138;49.246;9.100;2024-02-23T07:02:58;4.40;99.90
14119;DHT22;7138;49.246;9.100;2024-02-23T07:05:24;4.60;99.90
14119;DHT22;7138;49.246;9.100;2024-02-23T07:07:50;4.50;99.90
14119;DHT22;7138;49.246;9.100;2024-02-23T07:10:17;4.50;99.90
14119;DHT22;7138;49.246;9.100;2024-02-23T07:12:44;4.50;99.90
14119;DHT22;7138;49.246;9.100;2024-02-23T07:15:10;4.50;99.90
14119;DHT22;7138;49.246;9.100;2024-02-23T07:17:35;4.50;99.90
14119;DHT22;7138;49.246;9.100;2024-02-23T07:20:01;4.50;99.90
14119;DHT22;7138;49.246;9.100;2024-02-23T07:22:31;4.60;99.90
14119;DHT22;7138;49.246;9.100;2024-02-23T07:24:57;4.70;99.90
14119;DHT22;7138;49.246;9.100;2024-02-23T07:27:25;4.80;99.90
14119;DHT22;7138;49.246;9.100;2024-02-23T07:29:51;4.80;99.90
14119;DHT22;7138;49.246;9.100;2024-02-23T07:32:17;4.70;99.90
14119;DHT22;7138;49.246;9.100;2024-02-23T07:34:43;4.80;99.90
14119;DHT22;7138;49.246;9.100;2024-02-23T07:37:08;4.80;99.90
14119;DHT22;7138;49.246;9.100;2024-02-23T07:39:34;4.80;99.90
14119;DHT22;7138;49.246;9.100;2024-02-23T07:42:00;4.90;99.90
14119;DHT22;7138;49.246;9.100;2024-02-23T07:44:28;4.90;99.90
14119;DHT22;7138;49.246;9.100;2024-02-23T07:46:54;5.00;99.90
14119;DHT22;7138;49.246;9.100;2024-02-23T07:49:20;5.00;99.90
14119;DHT22;7138;49.246;9.100;2024-02-23T07:51:47;5.00;99.90
14119;DHT22;7138;49.246;9.100;2024-02-23T07:54:13;5.00;99.90
14119;DHT22;7138;49.246;9.100;2024-02-23T07:56:39;5.10;99.90
14119;DHT22;7138;49.246;9.100;2024-02-23T07:59:05;5.20;99.90
14119;DHT22;7138;49.246;9.100;2024-02-23T08:01:32;5.30;99.90
14119;DHT22;7138;49.246;9.100;2024-02-23T08:03:58;5.30;99.90
14119;DHT22;7138;49.246;9.100;2024-02-23T08:06:23;5.30;99.90
14119;DHT22;7138;49.246;9.100;2024-02-23T08:08:49;5.40;99.90
14119;DHT22;7138;49.246;9.100;2024-02-23T08:11:15;5.60;99.90
14119;DHT22;7138;49.246;9.100;2024-02-23T08:13:41;5.80;99.90
14119;DHT22;7138;49.246;9.100;2024-02-23T08:16:07;5.90;99.90
14119;DHT22;7138;49.246;9.100;2024-02-23T08:18:34;6.10;99.90
14119;DHT22;7138;49.246;9.100;2024-02-23T08:21:00;6.00;99.90
14119;DHT22;7138;49.246;9.100;2024-02-23T08:23:28;6.10;99.90
14119;DHT22;7138;49.246;9.100;2024-02-23T08:25:55;6.10;99.90
14119;DHT22;7138;49.246;9.100;2024-02-23T08:28:22;6.10;99.90
14119;DHT22;7138;49.246;9.100;2024-02-23T08:30:48;6.40;99.90
14119;DHT22;7138;49.246;9.100;2024-02-23T08:33:14;6.40;99.90
14119;DHT22;7138;49.246;9.100;2024-02-23T08:35:41;6.40;99.90
14119;DHT22;7138;49.246;9.100;2024-02-23T08:38:07;6.50;99.90
14119;DHT22;7138;49.246;9.100;2024-02-23T08:40:34;6.80;99.90
14119;DHT22;7138;49.246;9.100;2024-02-23T08:43:00;7.10;99.90
14119;DHT22;7138;49.246;9.100;2024-02-23T08:45:26;7.00;99.90
14119;DHT22;7138;49.246;9.100;2024-02-23T08:47:51;7.10;99.90
14119;DHT22;7138;49.246;9.100;2024-02-23T08:50:17;7.30;99.90
14119;DHT22;7138;49.246;9.100;2024-02-23T08:52:44;7.50;99.90
14119;DHT22;7138;49.246;9.100;2024-02-23T08:55:10;7.60;99.90
14119;DHT22;7138;49.246;9.100;2024-02-23T08:57:37;7.70;99.90
14119;DHT22;7138;49.246;9.100;2024-02-23T09:00:03;8.20;99.90
14119;DHT22;7138;49.246;9.100;2024-02-23T09:02:30;8.40;99.90
14119;DHT22;7138;49.246;9.100;2024-02-23T09:04:57;8.30;99.90
14119;DHT22;7138;49.246;9.100;2024-02-23T09:07:23;7.90;99.90
14119;DHT22;7138;49.246;9.100;2024-02-23T09:09:51;7.70;99.90
14119;DHT22;7138;49.246;9.100;2024-02-23T09:12:17;7.60;99.90
14119;DHT22;7138;49.246;9.100;2024-02-23T09:14:43;7.40;99.90
14119;DHT22;7138;49.246;9.100;2024-02-23T09:17:09;7.10;99.90
14119;DHT22;7138;49.246;9.100;2024-02-23T09:19:36;7.10;99.90
14119;DHT22;7138;49.246;9.100;2024-02-23T09:22:02;7.00;99.90
14119;DHT22;7138;49.246;9.100;2024-02-23T09:24:28;7.00;99.90
14119;DHT22;7138;49.246;9.100;2024-02-23T09:26:55;6.90;99.90
14119;DHT22;7138;49.246;9.100;2024-02-23T09:29:21;7.10;99.90
14119;DHT22;7138;49.246;9.100;2024-02-23T09:31:47;7.20;99.90
14119;DHT22;7138;49.246;9.100;2024-02-23T09:34:13;7.40;99.90
14119;DHT22;7138;49.246;9.100;2024-02-23T09:36:39;7.50;99.90
14119;DHT22;7138;49.246;9.100;2024-02-23T09:39:05;7.80;99.90
14119;DHT22;7138;49.246;9.100;2024-02-23T09:41:31;7.80;99.90
14119;DHT22;7138;49.246;9.100;2024-02-23T09:43:58;8.10;99.90
14119;DHT22;7138;49.246;9.100;2024-02-23T09:46:25;8.20;99.90
14119;DHT22;7138;49.246;9.100;2024-02-23T09:48:52;8.10;99.90
14119;DHT22;7138;49.246;9.100;2024-02-23T09:51:21;8.00;99.90
14119;DHT22;7138;49.246;9.100;2024-02-23T09:53:49;7.90;99.90
14119;DHT22;7138;49.246;9.100;2024-02-23T09:56:17;7.90;99.90
14119;DHT22;7138;49.246;9.100;2024-02-23T09:58:47;8.00;99.90
14119;DHT22;7138;49.246;9.100;2024-02-23T10:01:21;8.20;99.90
14119;DHT22;7138;49.246;9.100;2024-02-23T10:03:52;8.00;99.90
14119;DHT22;7138;49.246;9.100;2024-02-23T10:06:21;7.80;99.90
14119;DHT22;7138;49.246;9.100;2024-02-23T10:08:47;7.70;99.90
14119;DHT22;7138;49.246;9.100;2024-02-23T10:11:13;7.70;99.90
14119;DHT22;7138;49.246;9.100;2024-02-23T10:13:38;7.70;99.90
14119;DHT22;7138;49.246;9.100;2024-02-23T10:16:06;7.60;99.90
14119;DHT22;7138;49.246;9.100;2024-02-23T10:18:33;7.50;99.90
14119;DHT22;7138;49.246;9.100;2024-02-23T10:20:59;7.60;99.90
14119;DHT22;7138;49.246;9.100;2024-02-23T10:23:25;7.60;99.90
14119;DHT22;7138;49.246;9.100;2024-02-23T10:25:51;7.70;99.90
14119;DHT22;7138;49.246;9.100;2024-02-23T10:28:17;7.60;99.90
14119;DHT22;7138;49.246;9.100;2024-02-23T10:30:43;7.60;99.90
14119;DHT22;7138;49.246;9.100;2024-02-23T10:33:10;7.60;99.90
14119;DHT22;7138;49.246;9.100;2024-02-23T10:35:40;7.50;99.90
14119;DHT22;7138;49.246;9.100;2024-02-23T10:38:08;7.40;99.90
14119;DHT22;7138;49.246;9.100;2024-02-23T10:40:37;7.30;99.90
14119;DHT22;7138;49.246;9.100;2024-02-23T10:43:09;7.30;99.90
14119;DHT22;7138;49.246;9.100;2024-02-23T10:45:37;7.20;99.90
14119;DHT22;7138;49.246;9.100;2024-02-23T10:48:06;7.10;99.90
14119;DHT22;7138;49.246;9.100;2024-02-23T10:50:33;7.00;99.90
14119;DHT22;7138;49.246;9.100;2024-02-23T10:53:04;6.80;99.90
14119;DHT22;7138;49.246;9.100;2024-02-23T10:55:31;6.80;99.90
14119;DHT22;7138;49.246;9.100;2024-02-23T10:57:58;6.70;99.90
14119;DHT22;7138;49.246;9.100;2024-02-23T11:00:26;6.80;99.90
14119;DHT22;7138;49.246;9.100;2024-02-23T11:02:53;6.90;99.90
14119;DHT22;7138;49.246;9.100;2024-02-23T11:05:22;7.10;99.90
14119;DHT22;7138;49.246;9.100;2024-02-23T11:07:49;7.20;99.90
14119;DHT22;7138;49.246;9.100;2024-02-23T11:10:17;7.20;99.90
14119;DHT22;7138;49.246;9.100;2024-02-23T11:12:44;7.20;99.90
14119;DHT22;7138;49.246;9.100;2024-02-23T11:15:25;7.20;99.90
14119;DHT22;7138;49.246;9.100;2024-02-23T11:17:52;7.30;99.90
14119;DHT22;7138;49.246;9.100;2024-02-23T11:20:18;7.30;99.90
14119;DHT22;7138;49.246;9.100;2024-02-23T11:22:51;7.30;99.90
14119;DHT22;7138;49.246;9.100;2024-02-23T11:25:20;7.20;99.90
14119;DHT22;7138;49.246;9.100;2024-02-23T11:27:51;7.30;99.90
14119;DHT22;7138;49.246;9.100;2024-02-23T11:30:17;7.20;99.90
14119;DHT22;7138;49.246;9.100;2024-02-23T11:32:45;7.10;99.90
14119;DHT22;7138;49.246;9.100;2024-02-23T11:35:13;7.20;99.90
14119;DHT22;7138;49.246;9.100;2024-02-23T11:37:45;7.30;99.90
14119;DHT22;7138;49.246;9.100;2024-02-23T11:40:17;7.30;99.90
14119;DHT22;7138;49.246;9.100;2024-02-23T11:42:44;7.50;99.90
14119;DHT22;7138;49.246;9.100;2024-02-23T11:45:11;7.50;99.90
14119;DHT22;7138;49.246;9.100;2024-02-23T11:47:37;7.40;99.90
14119;DHT22;7138;49.246;9.100;2024-02-23T11:50:04;7.40;99.90
14119;DHT22;7138;49.246;9.100;2024-02-23T11:52:37;7.40;99.90
14119;DHT22;7138;49.246;9.100;2024-02-23T11:55:03;7.50;99.90
14119;DHT22;7138;49.246;9.100;2024-02-23T11:57:30;7.70;99.90
14119;DHT22;7138;49.246;9.100;2024-02-23T11:59:58;7.80;99.90
14119;DHT22;7138;49.246;9.100;2024-02-23T12:02:24;8.10;99.90
14119;DHT22;7138;49.246;9.100;2024-02-23T12:04:50;8.50;99.90
14119;DHT22;7138;49.246;9.100;2024-02-23T12:07:16;8.80;99.90
14119;DHT22;7138;49.246;9.100;2024-02-23T12:09:42;8.90;99.90
14119;DHT22;7138;49.246;9.100;2024-02-23T12:12:09;8.70;99.90
14119;DHT22;7138;49.246;9.100;2024-02-23T12:14:35;8.50;99.90
14119;DHT22;7138;49.246;9.100;2024-02-23T12:17:03;8.30;99.90
14119;DHT22;7138;49.246;9.100;2024-02-23T12:19:29;8.30;99.90
14119;DHT22;7138;49.246;9.100;2024-02-23T12:21:59;8.30;99.90
14119;DHT22;7138;49.246;9.100;2024-02-23T12:24:25;8.20;99.90
14119;DHT22;7138;49.246;9.100;2024-02-23T12:26:54;8.20;99.90
14119;DHT22;7138;49.246;9.100;2024-02-23T12:29:20;8.10;99.90
14119;DHT22;7138;49.246;9.100;2024-02-23T12:31:48;8.20;99.90
14119;DHT22;7138;49.246;9.100;2024-02-23T12:34:16;8.20;99.90
14119;DHT22;7138;49.246;9.100;2024-02-23T12:36:43;8.20;99.90
14119;DHT22;7138;49.246;9.100;2024-02-23T12:39:08;8.10;99.90
14119;DHT22;7138;49.246;9.100;2024-02-23T12:41:34;8.00;99.90
14119;DHT22;7138;49.246;9.100;2024-02-23T12:44:00;8.00;99.90
14119;DHT22;7138;49.246;9.100;2024-02-23T12:46:26;8.20;99.90
14119;DHT22;7138;49.246;9.100;2024-02-23T12:48:52;8.30;99.90
14119;DHT22;7138;49.246;9.100;2024-02-23T12:51:19;8.50;99.90
14119;DHT22;7138;49.246;9.100;2024-02-23T12:53:50;8.50;99.90
14119;DHT22;7138;49.246;9.100;2024-02-23T12:56:15;8.50;99.90
14119;DHT22;7138;49.246;9.100;2024-02-23T12:58:43;8.50;99.90
14119;DHT22;7138;49.246;9.100;2024-02-23T13:01:10;8.30;99.90
14119;DHT22;7138;49.246;9.100;2024-02-23T13:03:38;8.30;99.90
14119;DHT22;7138;49.246;9.100;2024-02-23T13:06:08;8.20;99.90
14119;DHT22;7138;49.246;9.100;2024-02-23T13:08:35;8.20;99.90
14119;DHT22;7138;49.246;9.100;2024-02-23T13:11:01;8.10;99.90
14119;DHT22;7138;49.246;9.100;2024-02-23T13:13:27;8.00;99.90
14119;DHT22;7138;49.246;9.100;2024-02-23T13:15:54;8.00;99.90
14119;DHT22;7138;49.246;9.100;2024-02-23T13:18:20;7.90;99.90
14119;DHT22;7138;49.246;9.100;2024-02-23T13:20:46;7.80;99.90
14119;DHT22;7138;49.246;9.100;2024-02-23T13:23:12;7.80;99.90
14119;DHT22;7138;49.246;9.100;2024-02-23T13:25:40;7.80;99.90
14119;DHT22;7138;49.246;9.100;2024-02-23T13:28:06;7.80;99.90
14119;DHT22;7138;49.246;9.100;2024-02-23T13:30:34;7.80;99.90
14119;DHT22;7138;49.246;9.100;2024-02-23T13:33:01;7.90;99.90
14119;DHT22;7138;49.246;9.100;2024-02-23T13:35:27;8.00;99.90
14119;DHT22;7138;49.246;9.100;2024-02-23T13:37:53;8.10;99.90
14119;DHT22;7138;49.246;9.100;2024-02-23T13:40:19;8.00;99.90
14119;DHT22;7138;49.246;9.100;2024-02-23T13:42:47;8.00;99.90
14119;DHT22;7138;49.246;9.100;2024-02-23T13:45:16;7.90;99.90
14119;DHT22;7138;49.246;9.100;2024-02-23T13:47:43;8.00;99.90
14119;DHT22;7138;49.246;9.100;2024-02-23T13:50:10;7.90;99.90
14119;DHT22;7138;49.246;9.100;2024-02-23T13:52:36;8.00;99.90
14119;DHT22;7138;49.246;9.100;2024-02-23T13:55:02;7.90;99.90
14119;DHT22;7138;49.246;9.100;2024-02-23T13:57:29;8.00;99.90
14119;DHT22;7138;49.246;9.100;2024-02-23T13:59:56;8.00;99.90
14119;DHT22;7138;49.246;9.100;2024-02-23T14:02:25;8.00;99.90
14119;DHT22;7138;49.246;9.100;2024-02-23T14:05:00;8.00;99.90
14119;DHT22;7138;49.246;9.100;2024-02-23T14:07:32;8.10;99.90
14119;DHT22;7138;49.246;9.100;2024-02-23T14:09:58;8.10;99.90
14119;DHT22;7138;49.246;9.100;2024-02-23T14:12:24;8.10;99.90
14119;DHT22;7138;49.246;9.100;2024-02-23T14:14:50;8.10;99.90
14119;DHT22;7138;49.246;9.100;2024-02-23T14:17:18;8.00;99.90
14119;DHT22;7138;49.246;9.100;2024-02-23T14:19:43;8.00;99.90
14119;DHT22;7138;49.246;9.100;2024-02-23T14:22:09;8.00;99.90
14119;DHT22;7138;49.246;9.100;2024-02-23T14:24:35;8.00;99.90
14119;DHT22;7138;49.246;9.100;2024-02-23T14:27:01;8.00;99.90
14119;DHT22;7138;49.246;9.100;2024-02-23T14:29:27;8.00;99.90
14119;DHT22;7138;49.246;9.100;2024-02-23T14:31:53;7.90;99.90
14119;DHT22;7138;49.246;9.100;2024-02-23T14:34:20;7.90;99.90
14119;DHT22;7138;49.246;9.100;2024-02-23T14:36:49;7.90;99.90
14119;DHT22;7138;49.246;9.100;2024-02-23T14:39:14;7.90;99.90
14119;DHT22;7138;49.246;9.100;2024-02-23T14:41:40;8.00;99.90
14119;DHT22;7138;49.246;9.100;2024-02-23T14:44:07;8.10;99.90
14119;DHT22;7138;49.246;9.100;2024-02-23T14:46:33;8.10;99.90
14119;DHT22;7138;49.246;9.100;2024-02-23T14:48:59;8.10;99.90
14119;DHT22;7138;49.246;9.100;2024-02-23T14:51:26;8.10;99.90
14119;DHT22;7138;49.246;9.100;2024-02-23T14:53:52;8.10;99.90
14119;DHT22;7138;49.246;9.100;2024-02-23T14:56:18;8.10;99.90
14119;DHT22;7138;49.246;9.100;2024-02-23T14:58:44;8.10;99.90
14119;DHT22;7138;49.246;9.100;2024-02-23T15:01:09;8.10;99.90
14119;DHT22;7138;49.246;9.100;2024-02-23T15:03:35;8.10;99.90
14119;DHT22;7138;49.246;9.100;2024-02-23T15:06:01;8.10;99.90
14119;DHT22;7138;49.246;9.100;2024-02-23T15:08:29;8.10;99.90
14119;DHT22;7138;49.246;9.100;2024-02-23T15:10:54;8.10;99.90
14119;DHT22;7138;49.246;9.100;2024-02-23T15:13:21;8.10;99.90
14119;DHT22;7138;49.246;9.100;2024-02-23T15:15:47;8.10;99.90
14119;DHT22;7138;49.246;9.100;2024-02-23T15:18:12;8.10;99.90
14119;DHT22;7138;49.246;9.100;2024-02-23T15:20:38;8.10;99.90
14119;DHT22;7138;49.246;9.100;2024-02-23T15:23:04;8.10;99.90
14119;DHT22;7138;49.246;9.100;2024-02-23T15:25:31;8.00;99.90
14119;DHT22;7138;49.246;9.100;2024-02-23T15:27:58;8.00;99.90
14119;DHT22;7138;49.246;9.100;2024-02-23T15:30:24;7.90;99.90
14119;DHT22;7138;49.246;9.100;2024-02-23T15:32:50;7.90;99.90
14119;DHT22;7138;49.246;9.100;2024-02-23T15:35:17;7.90;99.90
14119;DHT22;7138;49.246;9.100;2024-02-23T15:37:43;7.90;99.90
14119;DHT22;7138;49.246;9.100;2024-02-23T15:40:09;7.80;99.90
14119;DHT22;7138;49.246;9.100;2024-02-23T15:42:37;7.80;99.90
14119;DHT22;7138;49.246;9.100;2024-02-23T15:45:05;7.80;99.90
14119;DHT22;7138;49.246;9.100;2024-02-23T15:47:32;7.80;99.90
14119;DHT22;7138;49.246;9.100;2024-02-23T15:49:57;7.70;99.90
14119;DHT22;7138;49.246;9.100;2024-02-23T15:52:23;7.80;99.90
14119;DHT22;7138;49.246;9.100;2024-02-23T15:54:49;7.80;99.90
14119;DHT22;7138;49.246;9.100;2024-02-23T15:57:15;7.80;99.90